sensor_id;sensor_type;location;lat;lon;timestamp;pressure;altitude;pressure_sealevel;temperature;humidity
33153;BME280;19509;43.862;26.176;2023-05-27T00:01:17;100692.97;;;16.49;96.04
33153;BME280;19509;43.862;26.176;2023-05-27T00:03:43;100694.63;;;16.50;96.43
33153;BME280;19509;43.862;26.176;2023-05-27T00:06:08;100690.59;;;16.53;96.78
33153;BME280;19509;43.862;26.176;2023-05-27T00:08:34;100684.44;;;16.58;96.75
33153;BME280;19509;43.862;26.176;2023-05-27T00:10:59;100687.72;;;16.60;96.92
33153;BME280;19509;43.862;26.176;2023-05-27T00:13:25;100692.91;;;16.61;96.27
33153;BME280;19509;43.862;26.176;2023-05-27T00:15:51;100694.13;;;16.53;95.48
33153;BME280;19509;43.862;26.176;2023-05-27T00:18:16;100687.06;;;16.52;95.87
33153;BME280;19509;43.862;26.176;2023-05-27T00:20:42;100689.44;;;16.49;96.93
33153;BME280;19509;43.862;26.176;2023-05-27T00:23:07;100692.66;;;16.63;97.34
33153;BME280;19509;43.862;26.176;2023-05-27T00:25:33;100682.88;;;16.62;97.38
33153;BME280;19509;43.862;26.176;2023-05-27T00:27:59;100680.88;;;16.57;97.85
33153;BME280;19509;43.862;26.176;2023-05-27T00:30:24;100679.31;;;16.61;97.50
33153;BME280;19509;43.862;26.176;2023-05-27T00:32:50;100688.69;;;16.70;97.33
33153;BME280;19509;43.862;26.176;2023-05-27T00:35:15;100685.31;;;16.63;97.02
33153;BME280;19509;43.862;26.176;2023-05-27T00:37:41;100688.28;;;16.62;97.54
33153;BME280;19509;43.862;26.176;2023-05-27T00:40:10;100686.72;;;16.66;97.04
33153;BME280;19509;43.862;26.176;2023-05-27T00:42:36;100681.53;;;16.64;96.78
33153;BME280;19509;43.862;26.176;2023-05-27T00:45:03;100687.47;;;16.61;96.63
33153;BME280;19509;43.862;26.176;2023-05-27T00:47:30;100682.53;;;16.58;96.76
33153;BME280;19509;43.862;26.176;2023-05-27T00:49:56;100679.50;;;16.54;95.77
33153;BME280;19509;43.862;26.176;2023-05-27T00:52:22;100677.66;;;16.60;96.51
33153;BME280;19509;43.862;26.176;2023-05-27T00:54:48;100676.69;;;16.49;96.75
33153;BME280;19509;43.862;26.176;2023-05-27T00:57:14;100673.72;;;16.51;96.83
33153;BME280;19509;43.862;26.176;2023-05-27T00:59:40;100675.59;;;16.50;97.52
33153;BME280;19509;43.862;26.176;2023-05-27T01:02:05;100668.63;;;16.54;97.49
33153;BME280;19509;43.862;26.176;2023-05-27T01:04:31;100663.19;;;16.54;97.21
33153;BME280;19509;43.862;26.176;2023-05-27T01:07:22;100665.31;;;16.52;97.25
33153;BME280;19509;43.862;26.176;2023-05-27T01:10:23;100659.13;;;16.57;97.10
33153;BME280;19509;43.862;26.176;2023-05-27T01:13:04;100667.38;;;16.62;97.08
33153;BME280;19509;43.862;26.176;2023-05-27T01:15:32;100659.72;;;16.59;97.08
33153;BME280;19509;43.862;26.176;2023-05-27T01:18:01;100655.09;;;16.60;96.83
33153;BME280;19509;43.862;26.176;2023-05-27T01:20:28;100663.03;;;16.61;97.03
33153;BME280;19509;43.862;26.176;2023-05-27T01:22:55;100666.78;;;16.60;96.89
33153;BME280;19509;43.862;26.176;2023-05-27T01:25:23;100660.22;;;16.56;96.88
33153;BME280;19509;43.862;26.176;2023-05-27T01:27:48;100665.41;;;16.58;96.70
33153;BME280;19509;43.862;26.176;2023-05-27T01:30:15;100658.81;;;16.53;96.56
33153;BME280;19509;43.862;26.176;2023-05-27T01:32:57;100655.53;;;16.51;96.66
33153;BME280;19509;43.862;26.176;2023-05-27T01:35:28;100661.63;;;16.42;96.78
33153;BME280;19509;43.862;26.176;2023-05-27T01:37:58;100651.56;;;16.25;97.43
33153;BME280;19509;43.862;26.176;2023-05-27T01:40:27;100662.88;;;16.34;97.56
33153;BME280;19509;43.862;26.176;2023-05-27T01:42:53;100662.44;;;16.42;97.17
33153;BME280;19509;43.862;26.176;2023-05-27T01:45:21;100672.06;;;16.33;96.52
33153;BME280;19509;43.862;26.176;2023-05-27T01:47:47;100669.28;;;16.28;96.29
33153;BME280;19509;43.862;26.176;2023-05-27T01:50:12;100663.25;;;16.26;96.60
33153;BME280;19509;43.862;26.176;2023-05-27T01:52:38;100660.38;;;16.32;97.10
33153;BME280;19509;43.862;26.176;2023-05-27T01:55:04;100668.69;;;16.26;97.40
33153;BME280;19509;43.862;26.176;2023-05-27T01:57:30;100679.97;;;16.18;97.48
33153;BME280;19509;43.862;26.176;2023-05-27T01:59:56;100678.41;;;16.22;98.41
33153;BME280;19509;43.862;26.176;2023-05-27T02:02:21;100686.38;;;16.28;97.19
33153;BME280;19509;43.862;26.176;2023-05-27T02:04:47;100683.03;;;16.38;95.90
33153;BME280;19509;43.862;26.176;2023-05-27T02:07:12;100681.78;;;16.46;95.26
33153;BME280;19509;43.862;26.176;2023-05-27T02:09:38;100684.94;;;16.54;94.68
33153;BME280;19509;43.862;26.176;2023-05-27T02:12:03;100684.16;;;16.59;94.76
33153;BME280;19509;43.862;26.176;2023-05-27T02:14:30;100681.47;;;16.59;94.37
33153;BME280;19509;43.862;26.176;2023-05-27T02:16:56;100676.03;;;16.59;94.28
33153;BME280;19509;43.862;26.176;2023-05-27T02:19:21;100669.78;;;16.59;94.42
33153;BME280;19509;43.862;26.176;2023-05-27T02:21:47;100668.19;;;16.63;94.09
33153;BME280;19509;43.862;26.176;2023-05-27T02:24:12;100670.25;;;16.55;94.96
33153;BME280;19509;43.862;26.176;2023-05-27T02:26:38;100671.00;;;16.51;94.21
33153;BME280;19509;43.862;26.176;2023-05-27T02:29:04;100684.44;;;16.58;94.78
33153;BME280;19509;43.862;26.176;2023-05-27T02:31:29;100683.75;;;16.50;95.54
33153;BME280;19509;43.862;26.176;2023-05-27T02:33:55;100686.31;;;16.57;95.47
33153;BME280;19509;43.862;26.176;2023-05-27T02:36:20;100689.88;;;16.58;95.91
33153;BME280;19509;43.862;26.176;2023-05-27T02:38:46;100684.94;;;16.54;95.11
33153;BME280;19509;43.862;26.176;2023-05-27T02:41:11;100691.00;;;16.62;95.01
33153;BME280;19509;43.862;26.176;2023-05-27T02:43:37;100683.41;;;16.64;95.24
33153;BME280;19509;43.862;26.176;2023-05-27T02:46:03;100685.56;;;16.62;95.36
33153;BME280;19509;43.862;26.176;2023-05-27T02:48:28;100685.81;;;16.60;95.43
33153;BME280;19509;43.862;26.176;2023-05-27T02:50:54;100682.88;;;16.62;95.02
33153;BME280;19509;43.862;26.176;2023-05-27T02:53:19;100677.97;;;16.64;94.67
33153;BME280;19509;43.862;26.176;2023-05-27T02:55:45;100678.81;;;16.64;95.40
33153;BME280;19509;43.862;26.176;2023-05-27T02:58:10;100679.97;;;16.68;94.84
33153;BME280;19509;43.862;26.176;2023-05-27T03:00:36;100677.75;;;16.65;94.21
33153;BME280;19509;43.862;26.176;2023-05-27T03:03:02;100683.84;;;16.72;93.74
33153;BME280;19509;43.862;26.176;2023-05-27T03:05:30;100693.06;;;16.71;94.21
33153;BME280;19509;43.862;26.176;2023-05-27T03:07:55;100691.03;;;16.78;93.57
33153;BME280;19509;43.862;26.176;2023-05-27T03:10:21;100685.41;;;16.68;93.63
33153;BME280;19509;43.862;26.176;2023-05-27T03:12:47;100692.50;;;16.86;93.18
33153;BME280;19509;43.862;26.176;2023-05-27T03:15:12;100698.75;;;16.87;92.29
33153;BME280;19509;43.862;26.176;2023-05-27T03:17:38;100693.91;;;16.89;92.71
33153;BME280;19509;43.862;26.176;2023-05-27T03:20:04;100691.09;;;16.84;92.62
33153;BME280;19509;43.862;26.176;2023-05-27T03:22:32;100698.09;;;16.79;92.14
33153;BME280;19509;43.862;26.176;2023-05-27T03:24:58;100698.84;;;16.92;92.59
33153;BME280;19509;43.862;26.176;2023-05-27T03:27:23;100704.09;;;16.98;91.93
33153;BME280;19509;43.862;26.176;2023-05-27T03:29:48;100704.44;;;17.02;92.83
33153;BME280;19509;43.862;26.176;2023-05-27T03:32:14;100701.75;;;17.07;93.44
33153;BME280;19509;43.862;26.176;2023-05-27T03:34:40;100706.84;;;17.20;91.97
33153;BME280;19509;43.862;26.176;2023-05-27T03:37:05;100707.97;;;17.24;92.24
33153;BME280;19509;43.862;26.176;2023-05-27T03:39:31;100709.38;;;17.27;92.21
33153;BME280;19509;43.862;26.176;2023-05-27T03:41:57;100707.88;;;17.36;92.32
33153;BME280;19509;43.862;26.176;2023-05-27T03:44:22;100710.09;;;17.39;91.85
33153;BME280;19509;43.862;26.176;2023-05-27T03:46:48;100708.63;;;17.54;90.49
33153;BME280;19509;43.862;26.176;2023-05-27T03:49:14;100711.72;;;17.62;90.01
33153;BME280;19509;43.862;26.176;2023-05-27T03:51:39;100709.69;;;17.74;88.60
33153;BME280;19509;43.862;26.176;2023-05-27T03:54:05;100717.81;;;17.91;88.59
33153;BME280;19509;43.862;26.176;2023-05-27T03:56:31;100716.06;;;18.07;87.91
33153;BME280;19509;43.862;26.176;2023-05-27T03:58:56;100719.59;;;18.35;86.36
33153;BME280;19509;43.862;26.176;2023-05-27T04:01:22;100714.56;;;18.49;85.12
33153;BME280;19509;43.862;26.176;2023-05-27T04:03:48;100718.47;;;18.63;84.81
33153;BME280;19509;43.862;26.176;2023-05-27T04:06:14;100718.50;;;18.68;84.53
33153;BME280;19509;43.862;26.176;2023-05-27T04:08:39;100721.38;;;18.83;84.15
33153;BME280;19509;43.862;26.176;2023-05-27T04:11:06;100729.00;;;18.81;83.83
33153;BME280;19509;43.862;26.176;2023-05-27T04:13:31;100731.84;;;18.97;84.00
33153;BME280;19509;43.862;26.176;2023-05-27T04:15:57;100730.56;;;19.14;83.90
33153;BME280;19509;43.862;26.176;2023-05-27T04:18:22;100721.81;;;19.07;83.96
33153;BME280;19509;43.862;26.176;2023-05-27T04:20:48;100719.38;;;19.06;84.27
33153;BME280;19509;43.862;26.176;2023-05-27T04:23:15;100725.28;;;18.93;83.96
33153;BME280;19509;43.862;26.176;2023-05-27T04:25:41;100718.84;;;18.72;84.80
33153;BME280;19509;43.862;26.176;2023-05-27T04:28:09;100727.16;;;18.60;84.92
33153;BME280;19509;43.862;26.176;2023-05-27T04:30:35;100730.53;;;18.40;85.91
33153;BME280;19509;43.862;26.176;2023-05-27T04:33:04;100720.34;;;18.25;88.13
33153;BME280;19509;43.862;26.176;2023-05-27T04:35:30;100732.25;;;17.92;86.28
33153;BME280;19509;43.862;26.176;2023-05-27T04:37:57;100724.69;;;17.99;87.36
33153;BME280;19509;43.862;26.176;2023-05-27T04:40:24;100728.69;;;17.91;88.22
33153;BME280;19509;43.862;26.176;2023-05-27T04:42:50;100722.50;;;17.74;89.31
33153;BME280;19509;43.862;26.176;2023-05-27T04:45:16;100734.47;;;17.73;90.45
33153;BME280;19509;43.862;26.176;2023-05-27T04:47:41;100736.47;;;17.83;90.02
33153;BME280;19509;43.862;26.176;2023-05-27T04:50:08;100730.94;;;18.00;88.74
33153;BME280;19509;43.862;26.176;2023-05-27T04:52:33;100731.66;;;18.17;87.39
33153;BME280;19509;43.862;26.176;2023-05-27T04:55:08;100732.97;;;18.36;86.30
33153;BME280;19509;43.862;26.176;2023-05-27T04:57:34;100732.19;;;18.41;85.81
33153;BME280;19509;43.862;26.176;2023-05-27T05:00:02;100731.72;;;18.49;85.60
33153;BME280;19509;43.862;26.176;2023-05-27T05:02:29;100729.91;;;18.60;83.99
33153;BME280;19509;43.862;26.176;2023-05-27T05:07:29;100736.94;;;18.83;83.37
33153;BME280;19509;43.862;26.176;2023-05-27T05:09:55;100747.84;;;18.83;82.63
33153;BME280;19509;43.862;26.176;2023-05-27T05:12:21;100751.91;;;18.80;84.68
33153;BME280;19509;43.862;26.176;2023-05-27T05:14:47;100744.97;;;19.00;83.47
33153;BME280;19509;43.862;26.176;2023-05-27T05:17:12;100752.75;;;19.23;81.99
33153;BME280;19509;43.862;26.176;2023-05-27T05:19:38;100748.16;;;19.34;80.09
33153;BME280;19509;43.862;26.176;2023-05-27T05:22:04;100744.97;;;19.52;79.37
33153;BME280;19509;43.862;26.176;2023-05-27T05:24:30;100753.44;;;19.56;78.65
33153;BME280;19509;43.862;26.176;2023-05-27T05:26:55;100753.91;;;19.43;78.69
33153;BME280;19509;43.862;26.176;2023-05-27T05:29:21;100753.97;;;19.48;78.43
33153;BME280;19509;43.862;26.176;2023-05-27T05:31:46;100751.53;;;19.51;77.69
33153;BME280;19509;43.862;26.176;2023-05-27T05:34:12;100758.16;;;19.66;77.27
33153;BME280;19509;43.862;26.176;2023-05-27T05:36:38;100758.72;;;19.68;75.56
33153;BME280;19509;43.862;26.176;2023-05-27T05:39:03;100760.41;;;19.79;75.38
33153;BME280;19509;43.862;26.176;2023-05-27T05:41:29;100767.28;;;19.92;76.22
33153;BME280;19509;43.862;26.176;2023-05-27T05:43:55;100758.06;;;20.18;75.42
33153;BME280;19509;43.862;26.176;2023-05-27T05:46:20;100769.00;;;20.23;76.08
33153;BME280;19509;43.862;26.176;2023-05-27T05:48:46;100769.84;;;20.44;74.71
33153;BME280;19509;43.862;26.176;2023-05-27T05:51:12;100772.63;;;20.65;74.82
33153;BME280;19509;43.862;26.176;2023-05-27T05:53:37;100761.69;;;20.80;74.10
33153;BME280;19509;43.862;26.176;2023-05-27T05:56:03;100765.78;;;20.88;73.28
33153;BME280;19509;43.862;26.176;2023-05-27T05:58:28;100768.00;;;20.96;72.57
33153;BME280;19509;43.862;26.176;2023-05-27T06:00:54;100767.13;;;21.21;72.96
33153;BME280;19509;43.862;26.176;2023-05-27T06:03:20;100772.06;;;21.34;71.93
33153;BME280;19509;43.862;26.176;2023-05-27T06:05:45;100776.72;;;21.03;68.90
33153;BME280;19509;43.862;26.176;2023-05-27T06:08:11;100770.72;;;20.91;72.06
33153;BME280;19509;43.862;26.176;2023-05-27T06:10:36;100770.97;;;21.10;69.49
33153;BME280;19509;43.862;26.176;2023-05-27T06:13:03;100766.03;;;21.17;70.05
33153;BME280;19509;43.862;26.176;2023-05-27T06:15:29;100765.50;;;21.20;70.59
33153;BME280;19509;43.862;26.176;2023-05-27T06:17:56;100772.88;;;21.09;68.60
33153;BME280;19509;43.862;26.176;2023-05-27T06:20:21;100771.25;;;20.67;70.46
33153;BME280;19509;43.862;26.176;2023-05-27T06:22:49;100765.50;;;21.05;69.87
33153;BME280;19509;43.862;26.176;2023-05-27T06:25:14;100767.09;;;21.31;70.80
33153;BME280;19509;43.862;26.176;2023-05-27T06:27:41;100777.53;;;21.14;69.04
33153;BME280;19509;43.862;26.176;2023-05-27T06:30:07;100772.34;;;21.07;69.51
33153;BME280;19509;43.862;26.176;2023-05-27T06:32:32;100771.25;;;21.03;68.83
33153;BME280;19509;43.862;26.176;2023-05-27T06:34:58;100775.59;;;21.09;69.15
33153;BME280;19509;43.862;26.176;2023-05-27T06:37:23;100772.91;;;20.84;68.67
33153;BME280;19509;43.862;26.176;2023-05-27T06:39:49;100775.91;;;21.08;69.56
33153;BME280;19509;43.862;26.176;2023-05-27T06:42:14;100764.97;;;20.82;70.09
33153;BME280;19509;43.862;26.176;2023-05-27T06:44:41;100774.28;;;20.66;69.53
33153;BME280;19509;43.862;26.176;2023-05-27T06:47:06;100773.72;;;20.64;70.87
33153;BME280;19509;43.862;26.176;2023-05-27T06:49:32;100776.72;;;21.03;70.04
33153;BME280;19509;43.862;26.176;2023-05-27T06:51:58;100771.50;;;21.37;68.40
33153;BME280;19509;43.862;26.176;2023-05-27T06:54:24;100767.91;;;21.32;69.09
33153;BME280;19509;43.862;26.176;2023-05-27T06:56:49;100770.16;;;21.04;69.05
33153;BME280;19509;43.862;26.176;2023-05-27T06:59:15;100771.50;;;21.37;68.74
33153;BME280;19509;43.862;26.176;2023-05-27T07:01:41;100772.72;;;21.76;66.72
33153;BME280;19509;43.862;26.176;2023-05-27T07:04:06;100766.66;;;21.89;64.69
33153;BME280;19509;43.862;26.176;2023-05-27T07:06:32;100761.81;;;21.70;66.77
33153;BME280;19509;43.862;26.176;2023-05-27T07:08:58;100753.97;;;21.43;66.04
33153;BME280;19509;43.862;26.176;2023-05-27T07:11:23;100767.66;;;21.38;67.27
33153;BME280;19509;43.862;26.176;2023-05-27T07:13:49;100770.44;;;21.08;67.83
33153;BME280;19509;43.862;26.176;2023-05-27T07:16:16;100766.91;;;20.87;66.63
33153;BME280;19509;43.862;26.176;2023-05-27T07:18:41;100766.88;;;20.71;69.42
33153;BME280;19509;43.862;26.176;2023-05-27T07:21:08;100770.72;;;20.91;66.37
33153;BME280;19509;43.862;26.176;2023-05-27T07:23:34;100761.38;;;21.12;67.91
33153;BME280;19509;43.862;26.176;2023-05-27T07:25:59;100765.22;;;21.37;67.66
33153;BME280;19509;43.862;26.176;2023-05-27T07:28:25;100766.28;;;21.41;67.25
33153;BME280;19509;43.862;26.176;2023-05-27T07:30:51;100759.16;;;21.19;66.32
33153;BME280;19509;43.862;26.176;2023-05-27T07:33:17;100767.09;;;21.36;65.98
33153;BME280;19509;43.862;26.176;2023-05-27T07:35:43;100764.34;;;21.46;67.32
33153;BME280;19509;43.862;26.176;2023-05-27T07:38:09;100762.41;;;21.57;65.85
33153;BME280;19509;43.862;26.176;2023-05-27T07:40:35;100754.53;;;21.25;66.91
33153;BME280;19509;43.862;26.176;2023-05-27T07:43:01;100762.78;;;20.99;63.87
33153;BME280;19509;43.862;26.176;2023-05-27T07:45:26;100763.56;;;21.15;67.17
33153;BME280;19509;43.862;26.176;2023-05-27T07:47:52;100758.41;;;20.93;67.02
33153;BME280;19509;43.862;26.176;2023-05-27T07:50:17;100758.69;;;20.51;69.61
33153;BME280;19509;43.862;26.176;2023-05-27T07:52:43;100766.56;;;20.32;67.65
33153;BME280;19509;43.862;26.176;2023-05-27T07:55:09;100768.22;;;20.28;69.91
33153;BME280;19509;43.862;26.176;2023-05-27T07:57:34;100773.94;;;20.21;73.22
33153;BME280;19509;43.862;26.176;2023-05-27T08:00:00;100773.13;;;20.36;69.95
33153;BME280;19509;43.862;26.176;2023-05-27T08:02:25;100782.41;;;20.30;68.68
33153;BME280;19509;43.862;26.176;2023-05-27T08:04:51;100772.88;;;20.43;65.98
33153;BME280;19509;43.862;26.176;2023-05-27T08:07:17;100774.28;;;20.55;67.55
33153;BME280;19509;43.862;26.176;2023-05-27T08:09:42;100779.44;;;21.08;67.84
33153;BME280;19509;43.862;26.176;2023-05-27T08:12:08;100773.69;;;21.35;66.82
33153;BME280;19509;43.862;26.176;2023-05-27T08:14:34;100770.88;;;21.61;65.02
33153;BME280;19509;43.862;26.176;2023-05-27T08:17:01;100776.53;;;21.85;64.81
33153;BME280;19509;43.862;26.176;2023-05-27T08:19:27;100778.97;;;21.91;64.47
33153;BME280;19509;43.862;26.176;2023-05-27T08:21:53;100781.81;;;21.71;61.96
33153;BME280;19509;43.862;26.176;2023-05-27T08:24:19;100781.84;;;21.61;63.55
33153;BME280;19509;43.862;26.176;2023-05-27T08:26:47;100768.66;;;21.63;63.37
33153;BME280;19509;43.862;26.176;2023-05-27T08:29:12;100774.06;;;21.83;65.23
33153;BME280;19509;43.862;26.176;2023-05-27T08:31:39;100778.53;;;22.24;64.92
33153;BME280;19509;43.862;26.176;2023-05-27T08:34:05;100777.75;;;22.08;63.47
33153;BME280;19509;43.862;26.176;2023-05-27T08:36:31;100772.59;;;22.06;64.86
33153;BME280;19509;43.862;26.176;2023-05-27T08:38:57;100765.91;;;22.28;61.17
33153;BME280;19509;43.862;26.176;2023-05-27T08:41:23;100763.97;;;22.67;61.07
33153;BME280;19509;43.862;26.176;2023-05-27T08:43:49;100764.91;;;23.16;61.04
33153;BME280;19509;43.862;26.176;2023-05-27T08:46:15;100766.28;;;23.19;58.81
33153;BME280;19509;43.862;26.176;2023-05-27T08:48:41;100765.50;;;23.13;58.49
33153;BME280;19509;43.862;26.176;2023-05-27T08:51:09;100761.84;;;22.94;64.12
33153;BME280;19509;43.862;26.176;2023-05-27T08:53:35;100764.16;;;23.10;61.63
33153;BME280;19509;43.862;26.176;2023-05-27T08:56:01;100765.69;;;23.22;60.42
33153;BME280;19509;43.862;26.176;2023-05-27T08:58:28;100766.00;;;23.20;63.31
33153;BME280;19509;43.862;26.176;2023-05-27T09:00:54;100762.75;;;22.79;61.51
33153;BME280;19509;43.862;26.176;2023-05-27T09:03:20;100760.78;;;22.16;63.67
33153;BME280;19509;43.862;26.176;2023-05-27T09:05:47;100773.03;;;22.29;62.52
33153;BME280;19509;43.862;26.176;2023-05-27T09:08:12;100764.06;;;22.57;62.65
33153;BME280;19509;43.862;26.176;2023-05-27T09:10:38;100767.25;;;23.04;64.38
33153;BME280;19509;43.862;26.176;2023-05-27T09:13:05;100761.72;;;23.33;59.40
33153;BME280;19509;43.862;26.176;2023-05-27T09:15:31;100763.63;;;23.37;57.69
33153;BME280;19509;43.862;26.176;2023-05-27T09:17:57;100757.88;;;23.34;58.14
33153;BME280;19509;43.862;26.176;2023-05-27T09:20:28;100753.25;;;23.77;61.35
33153;BME280;19509;43.862;26.176;2023-05-27T09:22:58;100749.56;;;23.87;59.48
33153;BME280;19509;43.862;26.176;2023-05-27T09:25:25;100747.84;;;23.72;59.49
33153;BME280;19509;43.862;26.176;2023-05-27T09:27:51;100757.91;;;23.05;60.51
33153;BME280;19509;43.862;26.176;2023-05-27T09:30:19;100758.88;;;22.51;61.90
33153;BME280;19509;43.862;26.176;2023-05-27T09:32:45;100756.59;;;22.24;62.65
33153;BME280;19509;43.862;26.176;2023-05-27T09:35:12;100745.13;;;22.90;61.91
33153;BME280;19509;43.862;26.176;2023-05-27T09:37:38;100744.88;;;23.16;61.82
33153;BME280;19509;43.862;26.176;2023-05-27T09:42:44;100741.56;;;23.19;58.47
33153;BME280;19509;43.862;26.176;2023-05-27T09:45:20;100733.53;;;23.27;57.88
33153;BME280;19509;43.862;26.176;2023-05-27T09:47:52;100742.47;;;23.38;56.47
33153;BME280;19509;43.862;26.176;2023-05-27T09:50:18;100733.75;;;23.07;58.82
33153;BME280;19509;43.862;26.176;2023-05-27T09:55:13;100728.94;;;23.42;57.62
33153;BME280;19509;43.862;26.176;2023-05-27T09:57:39;100721.19;;;23.49;58.41
33153;BME280;19509;43.862;26.176;2023-05-27T10:00:07;100726.84;;;24.00;56.57
33153;BME280;19509;43.862;26.176;2023-05-27T10:02:50;100722.22;;;24.15;59.14
33153;BME280;19509;43.862;26.176;2023-05-27T10:05:17;100715.31;;;24.17;54.58
33153;BME280;19509;43.862;26.176;2023-05-27T10:07:45;100714.94;;;24.75;54.13
33153;BME280;19509;43.862;26.176;2023-05-27T10:10:12;100709.81;;;24.36;53.11
33153;BME280;19509;43.862;26.176;2023-05-27T10:12:41;100717.09;;;24.27;58.92
33153;BME280;19509;43.862;26.176;2023-05-27T10:15:08;100707.81;;;24.42;55.76
33153;BME280;19509;43.862;26.176;2023-05-27T10:17:52;100701.31;;;24.51;52.31
33153;BME280;19509;43.862;26.176;2023-05-27T10:20:49;100702.16;;;24.33;56.61
33153;BME280;19509;43.862;26.176;2023-05-27T10:23:16;100701.19;;;24.24;58.38
33153;BME280;19509;43.862;26.176;2023-05-27T10:25:53;100689.31;;;23.91;59.92
33153;BME280;19509;43.862;26.176;2023-05-27T10:28:48;100689.00;;;24.30;55.42
33153;BME280;19509;43.862;26.176;2023-05-27T10:31:16;100683.66;;;24.71;54.98
33153;BME280;19509;43.862;26.176;2023-05-27T10:33:51;100681.06;;;24.61;53.61
33153;BME280;19509;43.862;26.176;2023-05-27T10:36:27;100667.06;;;25.04;53.89
33153;BME280;19509;43.862;26.176;2023-05-27T10:39:04;100670.91;;;25.72;49.50
33153;BME280;19509;43.862;26.176;2023-05-27T10:41:43;100663.63;;;25.40;52.03
33153;BME280;19509;43.862;26.176;2023-05-27T10:44:13;100651.78;;;25.25;53.73
33153;BME280;19509;43.862;26.176;2023-05-27T10:46:40;100648.94;;;25.31;54.70
33153;BME280;19509;43.862;26.176;2023-05-27T10:49:22;100660.03;;;24.84;55.04
33153;BME280;19509;43.862;26.176;2023-05-27T10:51:49;100648.09;;;25.02;53.58
33153;BME280;19509;43.862;26.176;2023-05-27T10:54:15;100648.91;;;24.89;55.32
33153;BME280;19509;43.862;26.176;2023-05-27T10:56:50;100642.50;;;24.80;52.48
33153;BME280;19509;43.862;26.176;2023-05-27T10:59:22;100643.50;;;24.05;60.06
33153;BME280;19509;43.862;26.176;2023-05-27T11:01:51;100634.25;;;24.15;55.75
33153;BME280;19509;43.862;26.176;2023-05-27T11:04:17;100627.19;;;24.60;55.16
33153;BME280;19509;43.862;26.176;2023-05-27T11:06:56;100624.38;;;25.20;54.17
33153;BME280;19509;43.862;26.176;2023-05-27T11:09:23;100617.72;;;25.85;53.77
33153;BME280;19509;43.862;26.176;2023-05-27T11:11:49;100617.69;;;26.53;51.65
33153;BME280;19509;43.862;26.176;2023-05-27T11:14:15;100604.38;;;26.55;49.94
33153;BME280;19509;43.862;26.176;2023-05-27T11:16:40;100612.69;;;25.87;52.93
33153;BME280;19509;43.862;26.176;2023-05-27T11:19:10;100613.59;;;26.19;51.28
33153;BME280;19509;43.862;26.176;2023-05-27T11:21:46;100599.97;;;26.23;51.01
33153;BME280;19509;43.862;26.176;2023-05-27T11:24:16;100594.34;;;26.59;49.23
33153;BME280;19509;43.862;26.176;2023-05-27T11:26:44;100598.56;;;26.34;50.99
33153;BME280;19509;43.862;26.176;2023-05-27T11:29:13;100591.97;;;26.12;49.65
33153;BME280;19509;43.862;26.176;2023-05-27T11:31:39;100592.00;;;26.21;49.02
33153;BME280;19509;43.862;26.176;2023-05-27T11:34:12;100587.59;;;25.75;51.41
33153;BME280;19509;43.862;26.176;2023-05-27T11:36:41;100574.34;;;26.00;52.08
33153;BME280;19509;43.862;26.176;2023-05-27T11:39:10;100580.97;;;25.76;53.86
33153;BME280;19509;43.862;26.176;2023-05-27T11:41:50;100570.22;;;25.88;52.74
33153;BME280;19509;43.862;26.176;2023-05-27T11:44:18;100567.84;;;25.59;52.05
33153;BME280;19509;43.862;26.176;2023-05-27T11:46:44;100566.97;;;25.50;50.87
33153;BME280;19509;43.862;26.176;2023-05-27T11:49:14;100561.44;;;25.50;52.79
33153;BME280;19509;43.862;26.176;2023-05-27T11:51:44;100560.47;;;25.68;53.74
33153;BME280;19509;43.862;26.176;2023-05-27T11:54:24;100554.94;;;25.82;52.64
33153;BME280;19509;43.862;26.176;2023-05-27T11:56:52;100546.25;;;24.75;53.96
33153;BME280;19509;43.862;26.176;2023-05-27T11:59:18;100544.03;;;24.77;53.93
33153;BME280;19509;43.862;26.176;2023-05-27T12:01:45;100535.53;;;25.73;54.23
33153;BME280;19509;43.862;26.176;2023-05-27T12:04:11;100528.63;;;26.30;52.48
33153;BME280;19509;43.862;26.176;2023-05-27T12:06:37;100526.31;;;26.23;48.95
33153;BME280;19509;43.862;26.176;2023-05-27T12:09:04;100534.03;;;25.67;52.65
33153;BME280;19509;43.862;26.176;2023-05-27T12:11:31;100533.78;;;25.05;53.84
33153;BME280;19509;43.862;26.176;2023-05-27T12:13:57;100526.16;;;25.02;53.51
33153;BME280;19509;43.862;26.176;2023-05-27T12:16:22;100522.28;;;25.76;53.38
33153;BME280;19509;43.862;26.176;2023-05-27T12:18:48;100526.75;;;25.85;52.05
33153;BME280;19509;43.862;26.176;2023-05-27T12:21:18;100515.31;;;25.56;52.66
33153;BME280;19509;43.862;26.176;2023-05-27T12:23:45;100515.59;;;25.32;52.50
33153;BME280;19509;43.862;26.176;2023-05-27T12:26:12;100517.91;;;24.88;54.75
33153;BME280;19509;43.862;26.176;2023-05-27T12:28:38;100542.94;;;23.85;59.66
33153;BME280;19509;43.862;26.176;2023-05-27T12:31:03;100541.19;;;22.95;62.25
33153;BME280;19509;43.862;26.176;2023-05-27T12:33:30;100534.13;;;22.64;66.66
33153;BME280;19509;43.862;26.176;2023-05-27T12:35:57;100523.03;;;22.51;69.27
33153;BME280;19509;43.862;26.176;2023-05-27T12:38:22;100520.59;;;22.73;70.94
33153;BME280;19509;43.862;26.176;2023-05-27T12:40:48;100511.38;;;22.64;74.19
33153;BME280;19509;43.862;26.176;2023-05-27T12:43:14;100522.78;;;22.52;70.73
33153;BME280;19509;43.862;26.176;2023-05-27T12:45:40;100574.63;;;21.85;78.38
33153;BME280;19509;43.862;26.176;2023-05-27T12:48:05;100572.34;;;18.57;76.88